sensor_id;sensor_type;location;lat;lon;timestamp;P1;durP1;ratioP1;P2;durP2;ratioP2
17725;SDS011;8983;53.156;17.960;2022-08-03T00:01:40;4.17;;;3.10;;
17725;SDS011;8983;53.156;17.960;2022-08-03T00:04:10;4.87;;;3.60;;
17725;SDS011;8983;53.156;17.960;2022-08-03T00:06:38;5.53;;;3.20;;
17725;SDS011;8983;53.156;17.960;2022-08-03T00:09:06;3.67;;;3.30;;
17725;SDS011;8983;53.156;17.960;2022-08-03T00:11:35;3.77;;;3.30;;
17725;SDS011;8983;53.156;17.960;2022-08-03T00:14:03;5.70;;;3.17;;
17725;SDS011;8983;53.156;17.960;2022-08-03T00:16:33;3.77;;;3.27;;
17725;SDS011;8983;53.156;17.960;2022-08-03T00:19:01;5.73;;;3.10;;
17725;SDS011;8983;53.156;17.960;2022-08-03T00:21:30;6.03;;;3.57;;
17725;SDS011;8983;53.156;17.960;2022-08-03T00:23:58;5.27;;;3.70;;
17725;SDS011;8983;53.156;17.960;2022-08-03T00:26:26;6.67;;;3.33;;
17725;SDS011;8983;53.156;17.960;2022-08-03T00:28:54;6.47;;;3.83;;
17725;SDS011;8983;53.156;17.960;2022-08-03T00:31:22;7.43;;;3.30;;
17725;SDS011;8983;53.156;17.960;2022-08-03T00:34:11;5.40;;;3.50;;
17725;SDS011;8983;53.156;17.960;2022-08-03T00:36:39;5.50;;;3.37;;
17725;SDS011;8983;53.156;17.960;2022-08-03T00:39:08;4.80;;;3.60;;
17725;SDS011;8983;53.156;17.960;2022-08-03T00:41:36;4.70;;;3.47;;
17725;SDS011;8983;53.156;17.960;2022-08-03T00:44:04;6.07;;;3.40;;
17725;SDS011;8983;53.156;17.960;2022-08-03T00:46:32;4.90;;;3.90;;
17725;SDS011;8983;53.156;17.960;2022-08-03T00:49:00;5.43;;;3.37;;
17725;SDS011;8983;53.156;17.960;2022-08-03T00:51:30;4.67;;;3.40;;
17725;SDS011;8983;53.156;17.960;2022-08-03T00:53:58;6.77;;;3.30;;
17725;SDS011;8983;53.156;17.960;2022-08-03T00:56:26;4.50;;;3.07;;
17725;SDS011;8983;53.156;17.960;2022-08-03T00:58:54;7.20;;;3.27;;
17725;SDS011;8983;53.156;17.960;2022-08-03T01:01:24;5.13;;;3.57;;
17725;SDS011;8983;53.156;17.960;2022-08-03T01:03:57;7.03;;;3.33;;
17725;SDS011;8983;53.156;17.960;2022-08-03T01:06:27;6.30;;;3.10;;
17725;SDS011;8983;53.156;17.960;2022-08-03T01:09:04;5.67;;;3.20;;
17725;SDS011;8983;53.156;17.960;2022-08-03T01:11:39;8.30;;;3.47;;
17725;SDS011;8983;53.156;17.960;2022-08-03T01:14:29;5.60;;;3.03;;
17725;SDS011;8983;53.156;17.960;2022-08-03T01:17:01;5.23;;;3.47;;
17725;SDS011;8983;53.156;17.960;2022-08-03T01:19:40;5.03;;;3.73;;
17725;SDS011;8983;53.156;17.960;2022-08-03T01:22:17;7.07;;;2.90;;
17725;SDS011;8983;53.156;17.960;2022-08-03T01:25:00;5.17;;;3.43;;
17725;SDS011;8983;53.156;17.960;2022-08-03T01:27:36;4.27;;;3.07;;
17725;SDS011;8983;53.156;17.960;2022-08-03T01:30:18;6.13;;;3.20;;
17725;SDS011;8983;53.156;17.960;2022-08-03T01:32:48;4.23;;;3.13;;
17725;SDS011;8983;53.156;17.960;2022-08-03T01:35:31;4.33;;;3.40;;
17725;SDS011;8983;53.156;17.960;2022-08-03T01:38:05;5.50;;;3.17;;
17725;SDS011;8983;53.156;17.960;2022-08-03T01:40:39;4.90;;;3.30;;
17725;SDS011;8983;53.156;17.960;2022-08-03T01:43:10;4.57;;;3.37;;
17725;SDS011;8983;53.156;17.960;2022-08-03T01:46:04;4.70;;;3.10;;
17725;SDS011;8983;53.156;17.960;2022-08-03T01:48:34;6.93;;;3.40;;
17725;SDS011;8983;53.156;17.960;2022-08-03T01:51:04;3.87;;;3.23;;
17725;SDS011;8983;53.156;17.960;2022-08-03T01:53:34;5.67;;;3.17;;
17725;SDS011;8983;53.156;17.960;2022-08-03T01:56:04;4.70;;;3.20;;
17725;SDS011;8983;53.156;17.960;2022-08-03T01:58:33;6.37;;;3.10;;
17725;SDS011;8983;53.156;17.960;2022-08-03T02:01:04;5.97;;;3.63;;
17725;SDS011;8983;53.156;17.960;2022-08-03T02:03:34;6.27;;;3.57;;
17725;SDS011;8983;53.156;17.960;2022-08-03T02:06:24;4.43;;;2.77;;
17725;SDS011;8983;53.156;17.960;2022-08-03T02:09:13;3.57;;;3.27;;
17725;SDS011;8983;53.156;17.960;2022-08-03T02:11:43;5.00;;;3.10;;
17725;SDS011;8983;53.156;17.960;2022-08-03T02:14:13;4.37;;;3.50;;
17725;SDS011;8983;53.156;17.960;2022-08-03T02:16:43;4.30;;;3.13;;
17725;SDS011;8983;53.156;17.960;2022-08-03T02:19:12;4.60;;;3.23;;
17725;SDS011;8983;53.156;17.960;2022-08-03T02:21:41;7.73;;;3.57;;
17725;SDS011;8983;53.156;17.960;2022-08-03T02:24:26;3.27;;;2.83;;
17725;SDS011;8983;53.156;17.960;2022-08-03T02:26:55;5.13;;;3.47;;
17725;SDS011;8983;53.156;17.960;2022-08-03T02:29:25;5.43;;;3.50;;
17725;SDS011;8983;53.156;17.960;2022-08-03T02:32:07;8.80;;;3.37;;
17725;SDS011;8983;53.156;17.960;2022-08-03T02:34:39;7.37;;;3.43;;
17725;SDS011;8983;53.156;17.960;2022-08-03T02:37:11;4.57;;;3.50;;
17725;SDS011;8983;53.156;17.960;2022-08-03T02:39:41;5.67;;;3.23;;
17725;SDS011;8983;53.156;17.960;2022-08-03T02:42:11;4.83;;;3.33;;
17725;SDS011;8983;53.156;17.960;2022-08-03T02:44:42;3.87;;;3.07;;
17725;SDS011;8983;53.156;17.960;2022-08-03T02:47:16;4.30;;;3.30;;
17725;SDS011;8983;53.156;17.960;2022-08-03T02:49:47;5.30;;;3.57;;
17725;SDS011;8983;53.156;17.960;2022-08-03T02:52:18;3.33;;;2.93;;
17725;SDS011;8983;53.156;17.960;2022-08-03T02:54:49;6.23;;;3.30;;
17725;SDS011;8983;53.156;17.960;2022-08-03T02:57:21;6.97;;;3.60;;
17725;SDS011;8983;53.156;17.960;2022-08-03T02:59:51;5.37;;;3.27;;
17725;SDS011;8983;53.156;17.960;2022-08-03T03:02:21;4.07;;;3.13;;
17725;SDS011;8983;53.156;17.960;2022-08-03T03:04:51;6.23;;;3.30;;
17725;SDS011;8983;53.156;17.960;2022-08-03T03:07:40;4.60;;;3.10;;
17725;SDS011;8983;53.156;17.960;2022-08-03T03:10:17;6.33;;;3.20;;
17725;SDS011;8983;53.156;17.960;2022-08-03T03:12:47;6.17;;;3.83;;
17725;SDS011;8983;53.156;17.960;2022-08-03T03:15:17;5.60;;;3.23;;
17725;SDS011;8983;53.156;17.960;2022-08-03T03:17:47;4.03;;;3.20;;
17725;SDS011;8983;53.156;17.960;2022-08-03T03:20:17;4.00;;;3.00;;
17725;SDS011;8983;53.156;17.960;2022-08-03T03:22:55;3.30;;;3.00;;
17725;SDS011;8983;53.156;17.960;2022-08-03T03:25:26;5.20;;;3.57;;
17725;SDS011;8983;53.156;17.960;2022-08-03T03:27:57;5.63;;;3.43;;
17725;SDS011;8983;53.156;17.960;2022-08-03T03:30:26;6.40;;;3.37;;
17725;SDS011;8983;53.156;17.960;2022-08-03T03:32:57;5.87;;;3.03;;
17725;SDS011;8983;53.156;17.960;2022-08-03T03:35:26;3.47;;;3.10;;
17725;SDS011;8983;53.156;17.960;2022-08-03T03:37:54;6.83;;;3.80;;
17725;SDS011;8983;53.156;17.960;2022-08-03T03:40:23;3.50;;;3.13;;
17725;SDS011;8983;53.156;17.960;2022-08-03T03:42:51;4.13;;;3.03;;
17725;SDS011;8983;53.156;17.960;2022-08-03T03:45:19;5.70;;;3.70;;
17725;SDS011;8983;53.156;17.960;2022-08-03T03:47:49;5.47;;;3.30;;
17725;SDS011;8983;53.156;17.960;2022-08-03T03:50:19;4.93;;;3.10;;
17725;SDS011;8983;53.156;17.960;2022-08-03T03:52:48;4.33;;;3.60;;
17725;SDS011;8983;53.156;17.960;2022-08-03T03:55:16;6.10;;;3.57;;
17725;SDS011;8983;53.156;17.960;2022-08-03T03:57:45;10.20;;;3.47;;
17725;SDS011;8983;53.156;17.960;2022-08-03T04:00:14;5.03;;;3.40;;
17725;SDS011;8983;53.156;17.960;2022-08-03T04:02:44;4.93;;;3.30;;
17725;SDS011;8983;53.156;17.960;2022-08-03T04:05:12;4.47;;;3.30;;
17725;SDS011;8983;53.156;17.960;2022-08-03T04:08:00;6.20;;;3.97;;
17725;SDS011;8983;53.156;17.960;2022-08-03T04:10:47;5.53;;;3.53;;
17725;SDS011;8983;53.156;17.960;2022-08-03T04:13:26;4.40;;;3.17;;
17725;SDS011;8983;53.156;17.960;2022-08-03T04:15:58;6.03;;;3.70;;
17725;SDS011;8983;53.156;17.960;2022-08-03T04:18:28;10.07;;;3.60;;
17725;SDS011;8983;53.156;17.960;2022-08-03T04:21:00;11.47;;;3.37;;
17725;SDS011;8983;53.156;17.960;2022-08-03T04:23:32;4.70;;;3.67;;
17725;SDS011;8983;53.156;17.960;2022-08-03T04:26:02;8.77;;;3.80;;
17725;SDS011;8983;53.156;17.960;2022-08-03T04:28:34;5.23;;;3.70;;
17725;SDS011;8983;53.156;17.960;2022-08-03T04:31:05;5.60;;;3.20;;
17725;SDS011;8983;53.156;17.960;2022-08-03T04:33:34;4.40;;;3.30;;
17725;SDS011;8983;53.156;17.960;2022-08-03T04:36:05;6.30;;;3.80;;
17725;SDS011;8983;53.156;17.960;2022-08-03T04:38:38;7.30;;;3.60;;
17725;SDS011;8983;53.156;17.960;2022-08-03T04:41:17;7.83;;;3.47;;
17725;SDS011;8983;53.156;17.960;2022-08-03T04:43:47;6.97;;;3.67;;
17725;SDS011;8983;53.156;17.960;2022-08-03T04:46:17;5.50;;;3.37;;
17725;SDS011;8983;53.156;17.960;2022-08-03T04:48:48;6.90;;;3.90;;
17725;SDS011;8983;53.156;17.960;2022-08-03T04:51:17;7.70;;;4.07;;
17725;SDS011;8983;53.156;17.960;2022-08-03T04:53:46;6.17;;;4.13;;
17725;SDS011;8983;53.156;17.960;2022-08-03T04:56:15;5.70;;;3.20;;
17725;SDS011;8983;53.156;17.960;2022-08-03T04:58:43;9.43;;;4.13;;
17725;SDS011;8983;53.156;17.960;2022-08-03T05:01:11;6.00;;;3.30;;
17725;SDS011;8983;53.156;17.960;2022-08-03T05:03:39;5.80;;;3.67;;
17725;SDS011;8983;53.156;17.960;2022-08-03T05:06:07;5.00;;;4.13;;
17725;SDS011;8983;53.156;17.960;2022-08-03T05:08:37;6.90;;;3.50;;
17725;SDS011;8983;53.156;17.960;2022-08-03T05:11:13;4.57;;;3.77;;
17725;SDS011;8983;53.156;17.960;2022-08-03T05:13:42;6.27;;;4.50;;
17725;SDS011;8983;53.156;17.960;2022-08-03T05:16:11;6.43;;;4.70;;
17725;SDS011;8983;53.156;17.960;2022-08-03T05:18:40;8.57;;;4.50;;
17725;SDS011;8983;53.156;17.960;2022-08-03T05:21:08;10.27;;;4.53;;
17725;SDS011;8983;53.156;17.960;2022-08-03T05:23:39;8.23;;;4.70;;
17725;SDS011;8983;53.156;17.960;2022-08-03T05:26:07;9.97;;;4.60;;
17725;SDS011;8983;53.156;17.960;2022-08-03T05:28:38;9.80;;;4.67;;
17725;SDS011;8983;53.156;17.960;2022-08-03T05:31:16;7.60;;;4.40;;
17725;SDS011;8983;53.156;17.960;2022-08-03T05:33:45;6.37;;;4.37;;
17725;SDS011;8983;53.156;17.960;2022-08-03T05:36:14;5.50;;;4.40;;
17725;SDS011;8983;53.156;17.960;2022-08-03T05:38:42;8.33;;;4.53;;
17725;SDS011;8983;53.156;17.960;2022-08-03T05:41:10;6.75;;;4.72;;
17725;SDS011;8983;53.156;17.960;2022-08-03T05:43:51;6.55;;;4.72;;
17725;SDS011;8983;53.156;17.960;2022-08-03T05:46:19;7.10;;;4.73;;
17725;SDS011;8983;53.156;17.960;2022-08-03T05:48:48;7.40;;;4.33;;
17725;SDS011;8983;53.156;17.960;2022-08-03T05:51:16;8.07;;;4.23;;
17725;SDS011;8983;53.156;17.960;2022-08-03T05:53:44;13.00;;;5.30;;
17725;SDS011;8983;53.156;17.960;2022-08-03T05:56:12;8.90;;;4.77;;
17725;SDS011;8983;53.156;17.960;2022-08-03T05:58:42;9.65;;;4.90;;
17725;SDS011;8983;53.156;17.960;2022-08-03T06:01:13;7.97;;;4.90;;
17725;SDS011;8983;53.156;17.960;2022-08-03T06:03:42;8.53;;;4.60;;
17725;SDS011;8983;53.156;17.960;2022-08-03T06:06:10;8.07;;;4.70;;
17725;SDS011;8983;53.156;17.960;2022-08-03T06:08:38;9.00;;;4.50;;
17725;SDS011;8983;53.156;17.960;2022-08-03T06:11:07;7.60;;;4.78;;
17725;SDS011;8983;53.156;17.960;2022-08-03T06:13:35;6.28;;;4.53;;
17725;SDS011;8983;53.156;17.960;2022-08-03T06:16:03;8.60;;;4.80;;
17725;SDS011;8983;53.156;17.960;2022-08-03T06:18:33;9.77;;;5.07;;
17725;SDS011;8983;53.156;17.960;2022-08-03T06:21:01;8.68;;;5.13;;
17725;SDS011;8983;53.156;17.960;2022-08-03T06:23:41;11.35;;;5.13;;
17725;SDS011;8983;53.156;17.960;2022-08-03T06:26:21;8.73;;;5.22;;
17725;SDS011;8983;53.156;17.960;2022-08-03T06:28:51;10.50;;;5.43;;
17725;SDS011;8983;53.156;17.960;2022-08-03T06:31:21;8.20;;;4.82;;
17725;SDS011;8983;53.156;17.960;2022-08-03T06:34:00;8.40;;;4.30;;
17725;SDS011;8983;53.156;17.960;2022-08-03T06:36:49;8.85;;;4.43;;
17725;SDS011;8983;53.156;17.960;2022-08-03T06:39:18;7.97;;;4.55;;
17725;SDS011;8983;53.156;17.960;2022-08-03T06:41:49;8.85;;;4.25;;
17725;SDS011;8983;53.156;17.960;2022-08-03T06:44:18;6.32;;;4.13;;
17725;SDS011;8983;53.156;17.960;2022-08-03T06:46:46;6.75;;;4.22;;
17725;SDS011;8983;53.156;17.960;2022-08-03T06:49:15;8.57;;;4.15;;
17725;SDS011;8983;53.156;17.960;2022-08-03T06:51:44;4.80;;;3.75;;
17725;SDS011;8983;53.156;17.960;2022-08-03T06:54:29;7.28;;;3.85;;
17725;SDS011;8983;53.156;17.960;2022-08-03T06:56:58;6.78;;;3.33;;
17725;SDS011;8983;53.156;17.960;2022-08-03T06:59:27;5.43;;;3.75;;
17725;SDS011;8983;53.156;17.960;2022-08-03T07:02:15;4.93;;;3.70;;
17725;SDS011;8983;53.156;17.960;2022-08-03T07:04:46;7.55;;;3.85;;
17725;SDS011;8983;53.156;17.960;2022-08-03T07:07:14;4.40;;;3.45;;
17725;SDS011;8983;53.156;17.960;2022-08-03T07:09:44;5.97;;;3.58;;
17725;SDS011;8983;53.156;17.960;2022-08-03T07:12:23;2.95;;;2.75;;
17725;SDS011;8983;53.156;17.960;2022-08-03T07:14:52;3.75;;;3.40;;
17725;SDS011;8983;53.156;17.960;2022-08-03T07:17:26;3.40;;;3.10;;
17725;SDS011;8983;53.156;17.960;2022-08-03T07:19:55;4.55;;;3.13;;
17725;SDS011;8983;53.156;17.960;2022-08-03T07:22:24;6.32;;;3.40;;
17725;SDS011;8983;53.156;17.960;2022-08-03T07:24:52;4.70;;;3.00;;
17725;SDS011;8983;53.156;17.960;2022-08-03T07:27:20;4.82;;;2.83;;
17725;SDS011;8983;53.156;17.960;2022-08-03T07:29:48;3.25;;;2.95;;
17725;SDS011;8983;53.156;17.960;2022-08-03T07:32:16;4.10;;;3.38;;
17725;SDS011;8983;53.156;17.960;2022-08-03T07:34:44;3.67;;;3.10;;
17725;SDS011;8983;53.156;17.960;2022-08-03T07:37:14;5.03;;;3.35;;
17725;SDS011;8983;53.156;17.960;2022-08-03T07:39:42;3.67;;;3.00;;
17725;SDS011;8983;53.156;17.960;2022-08-03T07:42:10;4.28;;;3.03;;
17725;SDS011;8983;53.156;17.960;2022-08-03T07:44:38;3.35;;;2.90;;
17725;SDS011;8983;53.156;17.960;2022-08-03T07:47:06;3.22;;;2.85;;
17725;SDS011;8983;53.156;17.960;2022-08-03T07:49:47;4.70;;;3.38;;
17725;SDS011;8983;53.156;17.960;2022-08-03T07:52:16;3.55;;;2.75;;
17725;SDS011;8983;53.156;17.960;2022-08-03T07:55:02;9.93;;;2.85;;
17725;SDS011;8983;53.156;17.960;2022-08-03T07:57:31;3.28;;;2.97;;
17725;SDS011;8983;53.156;17.960;2022-08-03T07:59:59;3.13;;;2.67;;
17725;SDS011;8983;53.156;17.960;2022-08-03T08:02:28;4.28;;;3.15;;
17725;SDS011;8983;53.156;17.960;2022-08-03T08:04:56;3.90;;;2.58;;
17725;SDS011;8983;53.156;17.960;2022-08-03T08:07:32;3.33;;;2.53;;
17725;SDS011;8983;53.156;17.960;2022-08-03T08:10:00;5.90;;;2.70;;
17725;SDS011;8983;53.156;17.960;2022-08-03T08:12:28;3.03;;;2.78;;
17725;SDS011;8983;53.156;17.960;2022-08-03T08:14:56;3.78;;;2.90;;
17725;SDS011;8983;53.156;17.960;2022-08-03T08:17:25;4.18;;;2.67;;
17725;SDS011;8983;53.156;17.960;2022-08-03T08:19:53;3.72;;;3.10;;
17725;SDS011;8983;53.156;17.960;2022-08-03T08:22:23;3.67;;;2.78;;
17725;SDS011;8983;53.156;17.960;2022-08-03T08:24:58;3.83;;;2.42;;
17725;SDS011;8983;53.156;17.960;2022-08-03T08:27:27;3.88;;;2.78;;
17725;SDS011;8983;53.156;17.960;2022-08-03T08:30:16;2.92;;;2.72;;
17725;SDS011;8983;53.156;17.960;2022-08-03T08:32:46;3.03;;;2.72;;
17725;SDS011;8983;53.156;17.960;2022-08-03T08:35:15;4.13;;;2.50;;
17725;SDS011;8983;53.156;17.960;2022-08-03T08:37:44;8.90;;;3.10;;
17725;SDS011;8983;53.156;17.960;2022-08-03T08:40:17;2.60;;;2.40;;
17725;SDS011;8983;53.156;17.960;2022-08-03T08:42:47;2.70;;;2.40;;
17725;SDS011;8983;53.156;17.960;2022-08-03T08:45:24;5.53;;;2.90;;
17725;SDS011;8983;53.156;17.960;2022-08-03T08:47:54;3.78;;;2.33;;
17725;SDS011;8983;53.156;17.960;2022-08-03T08:50:27;3.97;;;2.83;;
17725;SDS011;8983;53.156;17.960;2022-08-03T08:52:57;2.85;;;2.50;;
17725;SDS011;8983;53.156;17.960;2022-08-03T08:55:30;6.05;;;2.80;;
17725;SDS011;8983;53.156;17.960;2022-08-03T08:58:20;3.15;;;2.50;;
17725;SDS011;8983;53.156;17.960;2022-08-03T09:00:48;6.57;;;2.60;;
17725;SDS011;8983;53.156;17.960;2022-08-03T09:03:17;2.70;;;2.50;;
17725;SDS011;8983;53.156;17.960;2022-08-03T09:05:55;4.88;;;2.65;;
17725;SDS011;8983;53.156;17.960;2022-08-03T09:08:23;4.13;;;2.17;;
17725;SDS011;8983;53.156;17.960;2022-08-03T09:10:52;2.47;;;2.28;;
17725;SDS011;8983;53.156;17.960;2022-08-03T09:13:20;3.47;;;2.28;;
17725;SDS011;8983;53.156;17.960;2022-08-03T09:15:51;2.60;;;2.30;;
17725;SDS011;8983;53.156;17.960;2022-08-03T09:18:36;2.85;;;2.17;;
17725;SDS011;8983;53.156;17.960;2022-08-03T09:21:14;3.10;;;2.20;;
17725;SDS011;8983;53.156;17.960;2022-08-03T09:23:58;4.10;;;2.42;;
17725;SDS011;8983;53.156;17.960;2022-08-03T09:26:32;3.40;;;2.60;;
17725;SDS011;8983;53.156;17.960;2022-08-03T09:29:02;3.00;;;2.42;;
17725;SDS011;8983;53.156;17.960;2022-08-03T09:31:40;3.30;;;2.50;;
17725;SDS011;8983;53.156;17.960;2022-08-03T09:34:11;4.03;;;2.55;;
17725;SDS011;8983;53.156;17.960;2022-08-03T09:36:41;3.03;;;2.10;;
17725;SDS011;8983;53.156;17.960;2022-08-03T09:39:11;5.53;;;2.92;;
17725;SDS011;8983;53.156;17.960;2022-08-03T09:41:42;3.28;;;2.50;;
17725;SDS011;8983;53.156;17.960;2022-08-03T09:44:12;3.63;;;2.67;;
17725;SDS011;8983;53.156;17.960;2022-08-03T09:46:52;2.08;;;1.98;;
17725;SDS011;8983;53.156;17.960;2022-08-03T09:49:21;2.83;;;2.33;;
17725;SDS011;8983;53.156;17.960;2022-08-03T09:51:50;2.78;;;2.45;;
17725;SDS011;8983;53.156;17.960;2022-08-03T09:54:39;2.70;;;2.45;;
17725;SDS011;8983;53.156;17.960;2022-08-03T09:57:09;3.10;;;2.55;;
17725;SDS011;8983;53.156;17.960;2022-08-03T09:59:47;2.88;;;2.40;;
17725;SDS011;8983;53.156;17.960;2022-08-03T10:02:22;4.10;;;2.25;;
17725;SDS011;8983;53.156;17.960;2022-08-03T10:04:51;3.53;;;2.65;;
17725;SDS011;8983;53.156;17.960;2022-08-03T10:07:22;3.95;;;2.75;;
17725;SDS011;8983;53.156;17.960;2022-08-03T10:09:52;3.03;;;2.58;;
17725;SDS011;8983;53.156;17.960;2022-08-03T10:12:22;2.42;;;2.22;;
17725;SDS011;8983;53.156;17.960;2022-08-03T10:14:52;2.58;;;2.38;;
17725;SDS011;8983;53.156;17.960;2022-08-03T10:17:21;3.33;;;2.72;;
17725;SDS011;8983;53.156;17.960;2022-08-03T10:19:49;2.83;;;2.47;;
17725;SDS011;8983;53.156;17.960;2022-08-03T10:22:18;4.03;;;2.50;;
17725;SDS011;8983;53.156;17.960;2022-08-03T10:24:51;2.58;;;2.05;;
17725;SDS011;8983;53.156;17.960;2022-08-03T10:27:23;2.45;;;2.25;;
17725;SDS011;8983;53.156;17.960;2022-08-03T10:29:54;2.47;;;2.28;;
17725;SDS011;8983;53.156;17.960;2022-08-03T10:32:27;3.92;;;2.58;;
17725;SDS011;8983;53.156;17.960;2022-08-03T10:34:58;2.97;;;2.25;;
17725;SDS011;8983;53.156;17.960;2022-08-03T10:37:48;2.58;;;2.38;;
17725;SDS011;8983;53.156;17.960;2022-08-03T10:40:25;3.88;;;2.10;;
17725;SDS011;8983;53.156;17.960;2022-08-03T10:43:17;5.13;;;3.45;;
17725;SDS011;8983;53.156;17.960;2022-08-03T10:45:48;5.53;;;1.98;;
17725;SDS011;8983;53.156;17.960;2022-08-03T10:48:17;3.33;;;2.28;;
17725;SDS011;8983;53.156;17.960;2022-08-03T10:50:47;2.20;;;2.10;;
17725;SDS011;8983;53.156;17.960;2022-08-03T10:53:16;2.53;;;2.17;;
17725;SDS011;8983;53.156;17.960;2022-08-03T10:56:01;3.08;;;2.30;;
17725;SDS011;8983;53.156;17.960;2022-08-03T10:59:08;2.83;;;2.17;;
17725;SDS011;8983;53.156;17.960;2022-08-03T11:01:49;3.25;;;2.15;;
17725;SDS011;8983;53.156;17.960;2022-08-03T11:04:26;2.72;;;2.40;;
17725;SDS011;8983;53.156;17.960;2022-08-03T11:09:47;2.60;;;2.10;;
17725;SDS011;8983;53.156;17.960;2022-08-03T11:12:20;3.22;;;2.22;;
17725;SDS011;8983;53.156;17.960;2022-08-03T11:14:58;3.38;;;2.35;;
17725;SDS011;8983;53.156;17.960;2022-08-03T11:17:28;5.53;;;2.15;;
17725;SDS011;8983;53.156;17.960;2022-08-03T11:19:56;2.40;;;2.20;;
17725;SDS011;8983;53.156;17.960;2022-08-03T11:22:25;2.78;;;2.10;;
17725;SDS011;8983;53.156;17.960;2022-08-03T11:25:16;3.83;;;2.67;;
17725;SDS011;8983;53.156;17.960;2022-08-03T11:30:54;3.22;;;2.50;;
17725;SDS011;8983;53.156;17.960;2022-08-03T11:33:29;3.67;;;2.25;;
17725;SDS011;8983;53.156;17.960;2022-08-03T11:35:58;3.08;;;2.20;;
17725;SDS011;8983;53.156;17.960;2022-08-03T11:38:27;3.30;;;2.53;;
17725;SDS011;8983;53.156;17.960;2022-08-03T11:40:55;2.30;;;2.10;;
17725;SDS011;8983;53.156;17.960;2022-08-03T11:46:12;2.42;;;2.15;;
17725;SDS011;8983;53.156;17.960;2022-08-03T11:48:54;3.25;;;1.90;;
17725;SDS011;8983;53.156;17.960;2022-08-03T11:51:36;5.13;;;2.20;;
17725;SDS011;8983;53.156;17.960;2022-08-03T11:54:05;3.78;;;2.00;;
17725;SDS011;8983;53.156;17.960;2022-08-03T11:56:44;3.05;;;2.30;;
17725;SDS011;8983;53.156;17.960;2022-08-03T11:59:13;3.67;;;2.40;;
17725;SDS011;8983;53.156;17.960;2022-08-03T12:01:48;13.02;;;3.15;;
17725;SDS011;8983;53.156;17.960;2022-08-03T12:04:16;2.10;;;2.00;;
17725;SDS011;8983;53.156;17.960;2022-08-03T12:06:57;5.18;;;2.00;;
17725;SDS011;8983;53.156;17.960;2022-08-03T12:09:25;2.17;;;1.98;;
17725;SDS011;8983;53.156;17.960;2022-08-03T12:11:53;2.17;;;2.08;;
17725;SDS011;8983;53.156;17.960;2022-08-03T12:14:26;3.10;;;2.10;;
17725;SDS011;8983;53.156;17.960;2022-08-03T12:17:16;3.35;;;2.08;;
17725;SDS011;8983;53.156;17.960;2022-08-03T12:19:45;2.85;;;2.05;;
17725;SDS011;8983;53.156;17.960;2022-08-03T12:22:13;4.32;;;2.20;;
17725;SDS011;8983;53.156;17.960;2022-08-03T12:24:42;2.83;;;1.77;;
17725;SDS011;8983;53.156;17.960;2022-08-03T12:27:21;4.57;;;2.10;;
17725;SDS011;8983;53.156;17.960;2022-08-03T12:29:52;3.55;;;2.00;;
17725;SDS011;8983;53.156;17.960;2022-08-03T12:32:26;2.15;;;1.95;;
17725;SDS011;8983;53.156;17.960;2022-08-03T12:34:55;2.50;;;2.00;;
17725;SDS011;8983;53.156;17.960;2022-08-03T12:37:26;2.78;;;1.90;;
17725;SDS011;8983;53.156;17.960;2022-08-03T12:39:56;1.95;;;1.70;;
17725;SDS011;8983;53.156;17.960;2022-08-03T12:42:36;3.10;;;2.17;;
17725;SDS011;8983;53.156;17.960;2022-08-03T12:45:18;5.75;;;2.30;;
17725;SDS011;8983;53.156;17.960;2022-08-03T12:47:50;2.13;;;1.90;;
17725;SDS011;8983;53.156;17.960;2022-08-03T12:50:25;2.00;;;1.90;;
17725;SDS011;8983;53.156;17.960;2022-08-03T12:52:54;2.15;;;1.95;;
17725;SDS011;8983;53.156;17.960;2022-08-03T12:55:23;3.85;;;2.38;;
17725;SDS011;8983;53.156;17.960;2022-08-03T12:58:27;2.38;;;2.17;;
17725;SDS011;8983;53.156;17.960;2022-08-03T13:00:59;3.50;;;1.98;;
17725;SDS011;8983;53.156;17.960;2022-08-03T13:03:40;2.40;;;2.20;;
17725;SDS011;8983;53.156;17.960;2022-08-03T13:06:15;2.30;;;2.10;;
17725;SDS011;8983;53.156;17.960;2022-08-03T13:08:44;2.95;;;2.50;;
17725;SDS011;8983;53.156;17.960;2022-08-03T13:11:17;3.85;;;2.08;;
17725;SDS011;8983;53.156;17.960;2022-08-03T13:13:46;2.45;;;2.03;;
17725;SDS011;8983;53.156;17.960;2022-08-03T13:16:14;3.95;;;2.20;;
17725;SDS011;8983;53.156;17.960;2022-08-03T13:18:46;2.13;;;1.80;;
17725;SDS011;8983;53.156;17.960;2022-08-03T13:21:14;6.70;;;2.60;;
17725;SDS011;8983;53.156;17.960;2022-08-03T13:23:44;5.63;;;2.20;;
17725;SDS011;8983;53.156;17.960;2022-08-03T13:26:13;2.40;;;2.17;;
17725;SDS011;8983;53.156;17.960;2022-08-03T13:28:41;2.58;;;2.38;;
17725;SDS011;8983;53.156;17.960;2022-08-03T13:31:09;1.95;;;1.85;;
17725;SDS011;8983;53.156;17.960;2022-08-03T13:33:37;2.55;;;2.22;;
17725;SDS011;8983;53.156;17.960;2022-08-03T13:36:07;2.00;;;1.90;;
17725;SDS011;8983;53.156;17.960;2022-08-03T13:38:35;2.65;;;2.40;;
17725;SDS011;8983;53.156;17.960;2022-08-03T13:41:03;3.55;;;2.50;;
17725;SDS011;8983;53.156;17.960;2022-08-03T13:43:32;3.33;;;2.65;;
17725;SDS011;8983;53.156;17.960;2022-08-03T13:46:00;4.13;;;2.42;;
17725;SDS011;8983;53.156;17.960;2022-08-03T13:48:28;2.55;;;2.35;;
17725;SDS011;8983;53.156;17.960;2022-08-03T13:51:03;2.72;;;2.22;;
17725;SDS011;8983;53.156;17.960;2022-08-03T13:53:49;2.38;;;2.05;;
17725;SDS011;8983;53.156;17.960;2022-08-03T13:56:18;2.50;;;2.30;;
17725;SDS011;8983;53.156;17.960;2022-08-03T13:58:46;2.83;;;2.13;;
17725;SDS011;8983;53.156;17.960;2022-08-03T14:01:14;2.22;;;2.13;;
17725;SDS011;8983;53.156;17.960;2022-08-03T14:03:47;2.47;;;2.10;;
17725;SDS011;8983;53.156;17.960;2022-08-03T14:06:19;2.40;;;2.20;;
17725;SDS011;8983;53.156;17.960;2022-08-03T14:08:47;3.08;;;2.28;;
17725;SDS011;8983;53.156;17.960;2022-08-03T14:11:17;10.13;;;2.42;;
17725;SDS011;8983;53.156;17.960;2022-08-03T14:13:45;3.42;;;2.40;;
17725;SDS011;8983;53.156;17.960;2022-08-03T14:16:13;2.28;;;2.17;;
17725;SDS011;8983;53.156;17.960;2022-08-03T14:18:42;2.53;;;2.33;;
17725;SDS011;8983;53.156;17.960;2022-08-03T14:21:11;2.45;;;2.25;;
17725;SDS011;8983;53.156;17.960;2022-08-03T14:23:39;2.75;;;2.55;;
17725;SDS011;8983;53.156;17.960;2022-08-03T14:26:09;2.85;;;2.47;;
17725;SDS011;8983;53.156;17.960;2022-08-03T14:28:41;15.60;;;3.20;;
17725;SDS011;8983;53.156;17.960;2022-08-03T14:31:09;2.63;;;2.42;;
17725;SDS011;8983;53.156;17.960;2022-08-03T14:33:57;2.60;;;2.28;;
17725;SDS011;8983;53.156;17.960;2022-08-03T14:36:25;3.45;;;2.50;;
17725;SDS011;8983;53.156;17.960;2022-08-03T14:38:53;2.65;;;2.30;;
17725;SDS011;8983;53.156;17.960;2022-08-03T14:41:26;2.92;;;2.70;;
17725;SDS011;8983;53.156;17.960;2022-08-03T14:43:55;3.45;;;2.35;;
17725;SDS011;8983;53.156;17.960;2022-08-03T14:46:27;2.88;;;2.55;;
17725;SDS011;8983;53.156;17.960;2022-08-03T14:48:56;7.57;;;2.40;;
17725;SDS011;8983;53.156;17.960;2022-08-03T14:51:45;2.78;;;2.40;;
17725;SDS011;8983;53.156;17.960;2022-08-03T14:54:19;3.35;;;2.95;;
17725;SDS011;8983;53.156;17.960;2022-08-03T14:56:47;2.78;;;2.40;;
17725;SDS011;8983;53.156;17.960;2022-08-03T14:59:18;3.53;;;2.38;;
17725;SDS011;8983;53.156;17.960;2022-08-03T15:01:46;2.65;;;2.22;;
17725;SDS011;8983;53.156;17.960;2022-08-03T15:04:32;2.58;;;2.38;;
17725;SDS011;8983;53.156;17.960;2022-08-03T15:07:00;2.30;;;2.10;;
17725;SDS011;8983;53.156;17.960;2022-08-03T15:09:28;5.13;;;2.38;;
17725;SDS011;8983;53.156;17.960;2022-08-03T15:11:56;4.38;;;2.42;;
17725;SDS011;8983;53.156;17.960;2022-08-03T15:14:26;2.40;;;2.20;;
17725;SDS011;8983;53.156;17.960;2022-08-03T15:17:00;5.78;;;2.60;;
17725;SDS011;8983;53.156;17.960;2022-08-03T15:19:28;2.30;;;2.10;;
17725;SDS011;8983;53.156;17.960;2022-08-03T15:22:16;2.42;;;2.22;;
17725;SDS011;8983;53.156;17.960;2022-08-03T15:24:50;2.20;;;2.00;;
17725;SDS011;8983;53.156;17.960;2022-08-03T15:27:19;3.05;;;2.30;;